Time;durP1;ratioP1;P1;durP2;ratioP2;P2;SDS_P1;SDS_P2;PMS_P1;PMS_P2;Temp;Humidity;BMP_temperature;BMP_pressure;BME280_temperature;BME280_humidity;BME280_pressure;Samples;Min_cycle;Max_cycle;Signal;HPM_P1;HPM_P2
2023/08/31 00:00:44;;;;;;;6.05;2.90;;;;;;;;;;5024800;28;20049;-74
2023/08/31 00:03:11;;;;;;;3.60;3.30;;;;;;;;;;5035869;28;20045;-73
2023/08/31 00:05:39;;;;;;;3.63;3.33;;;;;;;;;;5031581;28;20502;-74
2023/08/31 00:08:06;;;;;;;3.60;3.30;;;;;;;;;;5035508;28;20068;-74
2023/08/31 00:10:31;;;;;;;3.78;3.10;;;;;;;;;;5030863;28;20041;-75
2023/08/31 00:12:57;;;;;;;5.10;3.00;;;;;;;;;;5038393;28;20045;-75
2023/08/31 00:15:23;;;;;;;3.20;2.90;;;;;;;;;;5013425;28;20049;-75
2023/08/31 00:17:49;;;;;;;6.95;3.33;;;;;;;;;;5030153;28;20560;-75
2023/08/31 00:20:14;;;;;;;3.58;3.28;;;;;;;;;;5030681;28;20053;-75
2023/08/31 00:22:40;;;;;;;6.10;2.95;;;;;;;;;;5031690;28;20063;-75
2023/08/31 00:25:08;;;;;;;2.92;2.72;;;;;;;;;;5039306;28;20041;-75
2023/08/31 00:27:34;;;;;;;4.43;3.05;;;;;;;;;;5032008;28;20580;-72
2023/08/31 00:29:59;;;;;;;2.90;2.70;;;;;;;;;;5019649;28;20131;-72
2023/08/31 00:32:25;;;;;;;2.97;2.72;;;;;;;;;;5036027;28;20144;-73
2023/08/31 00:34:50;;;;;;;5.07;2.38;;;;;;;;;;5021453;28;20041;-72
2023/08/31 00:37:16;;;;;;;4.53;3.40;;;;;;;;;;5037349;28;20047;-73
2023/08/31 00:39:43;;;;;;;2.85;2.65;;;;;;;;;;5036812;28;20938;-73
2023/08/31 00:42:09;;;;;;;3.40;3.00;;;;;;;;;;5026713;28;20049;-72
2023/08/31 00:44:34;;;;;;;3.22;2.67;;;;;;;;;;5039811;28;20048;-72
2023/08/31 00:47:02;;;;;;;3.13;2.83;;;;;;;;;;5035567;28;20048;-73
2023/08/31 00:49:28;;;;;;;2.85;2.65;;;;;;;;;;5035848;28;20041;-72
2023/08/31 00:51:53;;;;;;;3.85;2.88;;;;;;;;;;5021542;28;20049;-74
2023/08/31 00:54:20;;;;;;;2.80;2.60;;;;;;;;;;5036213;28;20106;-74
2023/08/31 00:56:46;;;;;;;3.53;3.20;;;;;;;;;;5038149;28;20045;-74
2023/08/31 00:59:11;;;;;;;3.80;2.83;;;;;;;;;;5018633;28;20045;-74
2023/08/31 01:01:51;;;;;;;3.22;2.58;;;;;;;;;;5036346;28;20130;-74
2023/08/31 01:04:38;;;;;;;2.70;2.50;;;;;;;;;;5027593;28;20030;-74
2023/08/31 01:07:13;;;;;;;3.08;2.78;;;;;;;;;;5037001;28;20037;-74
2023/08/31 01:09:55;;;;;;;5.13;2.75;;;;;;;;;;5022096;28;20056;-74
2023/08/31 01:12:34;;;;;;;3.38;2.80;;;;;;;;;;5042773;28;20095;-73
2023/08/31 01:15:07;;;;;;;3.67;2.75;;;;;;;;;;5021224;28;20122;-72
2023/08/31 01:17:42;;;;;;;3.97;2.90;;;;;;;;;;5033737;28;20033;-73
2023/08/31 01:20:11;;;;;;;2.78;2.55;;;;;;;;;;5039675;28;20040;-75
2023/08/31 01:23:00;;;;;;;3.13;2.83;;;;;;;;;;5032430;28;20071;-76
2023/08/31 01:25:26;;;;;;;5.10;2.47;;;;;;;;;;5023920;28;20045;-73
2023/08/31 01:27:51;;;;;;;7.03;2.65;;;;;;;;;;5037726;28;20061;-73
2023/08/31 01:30:17;;;;;;;3.10;2.80;;;;;;;;;;5048986;28;20125;-73
2023/08/31 01:32:47;;;;;;;3.20;2.90;;;;;;;;;;5028303;28;20072;-73
2023/08/31 01:35:16;;;;;;;3.17;2.80;;;;;;;;;;5028179;28;20046;-73
2023/08/31 01:37:58;;;;;;;5.28;3.10;;;;;;;;;;5028879;28;20436;-74
2023/08/31 01:40:38;;;;;;;3.20;2.90;;;;;;;;;;5027710;28;20044;-74
2023/08/31 01:43:06;;;;;;;6.50;2.67;;;;;;;;;;5036393;28;20128;-73
2023/08/31 01:45:34;;;;;;;3.80;2.65;;;;;;;;;;5031947;28;20044;-73
2023/08/31 01:47:59;;;;;;;5.60;2.97;;;;;;;;;;5033620;28;20076;-73
2023/08/31 01:50:25;;;;;;;2.88;2.63;;;;;;;;;;5034577;28;20494;-73
2023/08/31 01:52:53;;;;;;;2.78;2.53;;;;;;;;;;5032528;28;20045;-73
2023/08/31 01:55:18;;;;;;;2.85;2.50;;;;;;;;;;5033404;28;20038;-73
2023/08/31 01:57:44;;;;;;;2.90;2.63;;;;;;;;;;5040143;28;20094;-73
2023/08/31 02:00:17;;;;;;;2.80;2.42;;;;;;;;;;5023842;28;20057;-73
2023/08/31 02:02:43;;;;;;;3.65;2.45;;;;;;;;;;5032013;28;20053;-73
2023/08/31 02:05:09;;;;;;;3.22;2.60;;;;;;;;;;5034661;28;20044;-73
2023/08/31 02:07:35;;;;;;;2.92;2.60;;;;;;;;;;5033347;28;20041;-73
2023/08/31 02:10:01;;;;;;;8.05;2.50;;;;;;;;;;5022066;28;20045;-74
2023/08/31 02:12:27;;;;;;;2.60;2.40;;;;;;;;;;5033177;28;20041;-75
2023/08/31 02:14:53;;;;;;;2.80;2.50;;;;;;;;;;5048020;28;20451;-75
2023/08/31 02:17:19;;;;;;;2.45;2.25;;;;;;;;;;5024617;28;20033;-75
2023/08/31 02:19:45;;;;;;;2.53;2.33;;;;;;;;;;5039383;28;20044;-75
2023/08/31 02:22:10;;;;;;;2.60;2.40;;;;;;;;;;5037541;28;20042;-75
2023/08/31 02:24:36;;;;;;;2.55;2.10;;;;;;;;;;5031156;28;20045;-75
2023/08/31 02:27:01;;;;;;;2.50;2.30;;;;;;;;;;5031503;28;20049;-75
2023/08/31 02:29:26;;;;;;;4.93;2.50;;;;;;;;;;5028872;28;20049;-76
2023/08/31 02:31:52;;;;;;;2.63;2.42;;;;;;;;;;5037787;28;20163;-76
2023/08/31 02:34:17;;;;;;;3.03;2.72;;;;;;;;;;5031994;28;20048;-74
2023/08/31 02:36:43;;;;;;;2.72;2.53;;;;;;;;;;5050943;28;20095;-74
2023/08/31 02:39:09;;;;;;;2.58;2.38;;;;;;;;;;5041126;28;20049;-74
2023/08/31 02:41:36;;;;;;;11.60;2.63;;;;;;;;;;5033921;28;20049;-74
2023/08/31 02:44:03;;;;;;;2.30;2.10;;;;;;;;;;5041972;28;20049;-74
2023/08/31 02:46:29;;;;;;;2.25;2.05;;;;;;;;;;5041353;28;20057;-73
2023/08/31 02:48:54;;;;;;;2.38;2.10;;;;;;;;;;5032779;28;20053;-73
2023/08/31 02:51:20;;;;;;;1.83;1.73;;;;;;;;;;5037553;28;20449;-74
2023/08/31 02:53:45;;;;;;;4.57;2.13;;;;;;;;;;5041054;28;20056;-73
2023/08/31 02:56:11;;;;;;;2.55;2.10;;;;;;;;;;5039856;28;20053;-74
2023/08/31 02:58:37;;;;;;;2.15;1.95;;;;;;;;;;5040584;28;20041;-74
2023/08/31 03:01:13;;;;;;;1.92;1.83;;;;;;;;;;5041246;28;20076;-73
2023/08/31 03:03:45;;;;;;;1.90;1.80;;;;;;;;;;5032648;28;20049;-73
2023/08/31 03:06:11;;;;;;;7.65;2.03;;;;;;;;;;5030268;28;20428;-73
2023/08/31 03:08:37;;;;;;;2.45;2.15;;;;;;;;;;5033149;28;20044;-74
2023/08/31 03:11:03;;;;;;;4.30;2.40;;;;;;;;;;5032093;28;20552;-73
2023/08/31 03:13:29;;;;;;;2.83;2.63;;;;;;;;;;5036494;28;20037;-73
2023/08/31 03:15:56;;;;;;;5.75;2.25;;;;;;;;;;5029829;28;20738;-73
2023/08/31 03:18:23;;;;;;;3.20;2.92;;;;;;;;;;5031563;28;20041;-74
2023/08/31 03:20:49;;;;;;;3.83;2.88;;;;;;;;;;5036085;28;20037;-74
2023/08/31 03:23:15;;;;;;;3.10;2.78;;;;;;;;;;5020565;28;20132;-74
2023/08/31 03:25:41;;;;;;;3.08;2.78;;;;;;;;;;5023530;28;20140;-73
2023/08/31 03:28:07;;;;;;;5.00;3.17;;;;;;;;;;5036645;28;20072;-75
2023/08/31 03:30:32;;;;;;;4.97;3.40;;;;;;;;;;5027345;28;20033;-75
2023/08/31 03:32:58;;;;;;;3.63;3.33;;;;;;;;;;5028224;28;20113;-74
2023/08/31 03:35:26;;;;;;;3.42;2.70;;;;;;;;;;5044932;28;20044;-74
2023/08/31 03:37:53;;;;;;;4.88;3.17;;;;;;;;;;5038653;28;20037;-73
2023/08/31 03:40:19;;;;;;;5.10;3.53;;;;;;;;;;5035018;28;20060;-74
2023/08/31 03:42:44;;;;;;;3.80;3.40;;;;;;;;;;5035038;28;20042;-73
2023/08/31 03:45:11;;;;;;;3.90;3.50;;;;;;;;;;5036851;28;20045;-74
2023/08/31 03:47:37;;;;;;;3.63;3.33;;;;;;;;;;5017850;28;20079;-74
2023/08/31 03:50:04;;;;;;;5.55;3.15;;;;;;;;;;5026531;28;20041;-74
2023/08/31 03:52:29;;;;;;;5.72;3.30;;;;;;;;;;5030538;28;20132;-74
2023/08/31 03:54:55;;;;;;;3.95;3.45;;;;;;;;;;5046184;28;20595;-74
2023/08/31 03:57:21;;;;;;;3.58;3.28;;;;;;;;;;5018238;28;20041;-75
2023/08/31 03:59:48;;;;;;;3.65;3.08;;;;;;;;;;5037689;28;20053;-74
2023/08/31 04:02:14;;;;;;;5.72;2.50;;;;;;;;;;5017763;28;20075;-74
2023/08/31 04:04:40;;;;;;;1.70;1.60;;;;;;;;;;5034622;28;20095;-74
2023/08/31 04:07:06;;;;;;;2.20;1.98;;;;;;;;;;5036225;28;20072;-76
2023/08/31 04:09:32;;;;;;;2.33;2.13;;;;;;;;;;5020322;28;20531;-76
2023/08/31 04:11:58;;;;;;;3.10;2.13;;;;;;;;;;5037559;28;20051;-76
2023/08/31 04:14:26;;;;;;;4.40;1.80;;;;;;;;;;5019255;28;20423;-75
2023/08/31 04:16:51;;;;;;;2.78;1.83;;;;;;;;;;5022527;28;20149;-71
2023/08/31 04:19:17;;;;;;;3.03;2.05;;;;;;;;;;5037314;28;20187;-72
2023/08/31 04:21:43;;;;;;;3.72;2.10;;;;;;;;;;5032013;28;20049;-72
2023/08/31 04:24:09;;;;;;;2.80;2.13;;;;;;;;;;5032617;28;20064;-72
2023/08/31 04:26:35;;;;;;;3.10;2.00;;;;;;;;;;5025797;28;20049;-72
2023/08/31 04:29:05;;;;;;;2.97;1.55;;;;;;;;;;5029099;28;20166;-74
2023/08/31 04:31:31;;;;;;;3.60;1.83;;;;;;;;;;5029529;28;20041;-73
2023/08/31 04:33:57;;;;;;;1.77;1.67;;;;;;;;;;5023706;28;20641;-74
2023/08/31 04:36:22;;;;;;;2.22;2.03;;;;;;;;;;5021703;28;20812;-75
2023/08/31 04:38:51;;;;;;;1.80;1.70;;;;;;;;;;5019595;28;20128;-74
2023/08/31 04:41:17;;;;;;;2.75;1.88;;;;;;;;;;5018749;28;20049;-76
2023/08/31 04:43:42;;;;;;;2.03;1.83;;;;;;;;;;5036253;28;20053;-74
2023/08/31 04:46:08;;;;;;;2.88;1.67;;;;;;;;;;5019393;28;20048;-74
2023/08/31 04:48:33;;;;;;;2.03;1.60;;;;;;;;;;5021725;28;20049;-76
2023/08/31 04:50:58;;;;;;;2.53;1.92;;;;;;;;;;5023738;28;20050;-75
2023/08/31 04:53:24;;;;;;;2.40;2.17;;;;;;;;;;5031860;28;20051;-77
2023/08/31 04:55:50;;;;;;;2.05;1.80;;;;;;;;;;5039470;28;20616;-75
2023/08/31 04:58:15;;;;;;;1.85;1.75;;;;;;;;;;5024877;28;20168;-75
2023/08/31 05:00:41;;;;;;;1.85;1.70;;;;;;;;;;5020325;28;20457;-75
2023/08/31 05:03:06;;;;;;;1.85;1.75;;;;;;;;;;5021103;28;20049;-75
2023/08/31 05:05:32;;;;;;;5.13;1.90;;;;;;;;;;5020004;28;20049;-77
2023/08/31 05:07:58;;;;;;;2.13;1.95;;;;;;;;;;5034611;28;20057;-76
2023/08/31 05:10:24;;;;;;;1.95;1.80;;;;;;;;;;5019537;28;20107;-76
2023/08/31 05:12:49;;;;;;;2.70;1.80;;;;;;;;;;5020880;28;20128;-76
2023/08/31 05:15:15;;;;;;;1.95;1.70;;;;;;;;;;5026614;28;20068;-76
2023/08/31 05:17:40;;;;;;;1.77;1.67;;;;;;;;;;5032860;28;21579;-76
2023/08/31 05:20:08;;;;;;;2.28;1.80;;;;;;;;;;5021717;28;20052;-75
2023/08/31 05:22:34;;;;;;;2.58;1.75;;;;;;;;;;5027310;28;20538;-75
2023/08/31 05:25:00;;;;;;;1.67;1.58;;;;;;;;;;5023993;28;20050;-72
2023/08/31 05:27:26;;;;;;;1.70;1.60;;;;;;;;;;5026387;28;20065;-73
2023/08/31 05:29:51;;;;;;;1.98;1.58;;;;;;;;;;5038963;28;20425;-73
2023/08/31 05:32:17;;;;;;;1.65;1.38;;;;;;;;;;5038191;28;20041;-72
2023/08/31 05:34:42;;;;;;;1.90;1.77;;;;;;;;;;5023603;28;20604;-73
2023/08/31 05:37:07;;;;;;;2.05;1.90;;;;;;;;;;5023576;28;20056;-73
2023/08/31 05:39:34;;;;;;;1.95;1.70;;;;;;;;;;5021869;28;20037;-76
2023/08/31 05:41:59;;;;;;;2.47;2.00;;;;;;;;;;5037338;28;20048;-74
2023/08/31 05:44:25;;;;;;;1.67;1.45;;;;;;;;;;5031495;28;20046;-74
2023/08/31 05:46:50;;;;;;;1.80;1.70;;;;;;;;;;5032999;28;20875;-74
2023/08/31 05:49:16;;;;;;;1.88;1.60;;;;;;;;;;5030448;28;20543;-74
2023/08/31 05:51:41;;;;;;;1.80;1.70;;;;;;;;;;5031473;28;20051;-74
2023/08/31 05:54:11;;;;;;;1.50;1.40;;;;;;;;;;5034533;28;20033;-74
2023/08/31 05:56:39;;;;;;;2.45;1.63;;;;;;;;;;5034193;28;20144;-74
2023/08/31 05:59:08;;;;;;;2.50;1.50;;;;;;;;;;5028012;28;20041;-74
2023/08/31 06:01:36;;;;;;;1.98;1.83;;;;;;;;;;5037261;28;20048;-74
2023/08/31 06:04:03;;;;;;;1.80;1.65;;;;;;;;;;5037554;28;20654;-74
2023/08/31 06:06:29;;;;;;;1.70;1.60;;;;;;;;;;5034843;28;20041;-74
2023/08/31 06:08:54;;;;;;;2.28;1.98;;;;;;;;;;5038836;28;20048;-74
2023/08/31 06:11:21;;;;;;;3.28;1.63;;;;;;;;;;5045080;28;20561;-74
2023/08/31 06:13:46;;;;;;;1.80;1.70;;;;;;;;;;5028917;28;20139;-74
2023/08/31 06:16:12;;;;;;;2.78;1.80;;;;;;;;;;5030005;28;20136;-74
2023/08/31 06:18:37;;;;;;;1.92;1.60;;;;;;;;;;5036679;28;20049;-74
2023/08/31 06:21:02;;;;;;;1.83;1.67;;;;;;;;;;5034897;28;20068;-73
2023/08/31 06:23:28;;;;;;;6.30;1.70;;;;;;;;;;5027373;28;20497;-73
2023/08/31 06:25:53;;;;;;;2.50;1.60;;;;;;;;;;5020890;28;20103;-73
2023/08/31 06:28:19;;;;;;;2.00;1.80;;;;;;;;;;5037792;28;20053;-73
2023/08/31 06:30:47;;;;;;;1.90;1.80;;;;;;;;;;5022998;28;20050;-73
2023/08/31 06:33:17;;;;;;;2.63;1.80;;;;;;;;;;5038840;28;20049;-73
2023/08/31 06:35:44;;;;;;;1.80;1.67;;;;;;;;;;5036118;28;20057;-73
2023/08/31 06:38:09;;;;;;;1.88;1.73;;;;;;;;;;5036690;28;20055;-73
2023/08/31 06:40:34;;;;;;;1.88;1.70;;;;;;;;;;5027368;28;20049;-74
2023/08/31 06:43:00;;;;;;;1.95;1.75;;;;;;;;;;5035965;28;20120;-74
2023/08/31 06:45:25;;;;;;;3.17;1.80;;;;;;;;;;5036730;28;21238;-73
2023/08/31 06:47:51;;;;;;;1.98;1.77;;;;;;;;;;5024260;28;20061;-73
2023/08/31 06:50:16;;;;;;;2.13;1.92;;;;;;;;;;5031082;28;20080;-74
2023/08/31 06:52:43;;;;;;;1.90;1.80;;;;;;;;;;5027887;28;20041;-74
2023/08/31 06:55:10;;;;;;;2.33;1.73;;;;;;;;;;5037473;28;20048;-74
2023/08/31 06:57:37;;;;;;;1.77;1.67;;;;;;;;;;5027195;28;20053;-74
2023/08/31 07:00:03;;;;;;;1.80;1.70;;;;;;;;;;5028439;28;20056;-74
2023/08/31 07:02:29;;;;;;;2.10;1.90;;;;;;;;;;5037415;28;20512;-73
2023/08/31 07:04:54;;;;;;;1.80;1.70;;;;;;;;;;5027367;28;20049;-73
2023/08/31 07:07:20;;;;;;;1.77;1.60;;;;;;;;;;5023674;28;20049;-75
2023/08/31 07:09:46;;;;;;;2.53;2.10;;;;;;;;;;5021033;28;20095;-75
2023/08/31 07:12:12;;;;;;;2.42;2.22;;;;;;;;;;5025159;28;20379;-74
2023/08/31 07:14:38;;;;;;;2.38;1.80;;;;;;;;;;5034274;28;20517;-74
2023/08/31 07:17:04;;;;;;;2.03;1.80;;;;;;;;;;5035894;28;20036;-75
2023/08/31 07:19:29;;;;;;;2.22;1.90;;;;;;;;;;5024723;28;20055;-74
2023/08/31 07:21:54;;;;;;;2.80;1.80;;;;;;;;;;5028227;28;20045;-74
2023/08/31 07:24:21;;;;;;;2.17;1.65;;;;;;;;;;5040434;28;20559;-74
2023/08/31 07:26:47;;;;;;;2.10;1.90;;;;;;;;;;5039639;28;20058;-74
2023/08/31 07:29:12;;;;;;;1.85;1.65;;;;;;;;;;5024322;28;20041;-74
2023/08/31 07:31:38;;;;;;;2.17;1.70;;;;;;;;;;5028415;28;20049;-74
2023/08/31 07:34:03;;;;;;;3.85;1.88;;;;;;;;;;5026576;28;20049;-74
2023/08/31 07:36:29;;;;;;;1.90;1.55;;;;;;;;;;5025830;28;20041;-73
2023/08/31 07:38:54;;;;;;;3.17;1.70;;;;;;;;;;5021636;28;20045;-74
2023/08/31 07:41:19;;;;;;;1.90;1.70;;;;;;;;;;5024347;28;20198;-74
2023/08/31 07:43:45;;;;;;;3.15;2.08;;;;;;;;;;5027378;28;20045;-74
2023/08/31 07:46:10;;;;;;;3.10;2.00;;;;;;;;;;5024379;28;20041;-74
2023/08/31 07:48:36;;;;;;;1.95;1.65;;;;;;;;;;5035705;28;20180;-74
2023/08/31 07:51:03;;;;;;;2.92;1.60;;;;;;;;;;5027113;28;20125;-74
2023/08/31 07:53:28;;;;;;;1.83;1.50;;;;;;;;;;5034877;28;20053;-74
2023/08/31 07:55:56;;;;;;;1.90;1.80;;;;;;;;;;5029038;28;20058;-74
2023/08/31 07:58:26;;;;;;;2.53;2.33;;;;;;;;;;5029206;28;20080;-74
2023/08/31 08:00:57;;;;;;;2.38;2.10;;;;;;;;;;5028479;28;20557;-74
2023/08/31 08:03:23;;;;;;;1.60;1.50;;;;;;;;;;5028711;28;20053;-75
2023/08/31 08:05:49;;;;;;;1.88;1.67;;;;;;;;;;5033225;28;20060;-73
2023/08/31 08:08:14;;;;;;;2.40;1.35;;;;;;;;;;5028734;28;20115;-73
2023/08/31 08:10:40;;;;;;;3.83;1.70;;;;;;;;;;5031781;28;20048;-69
2023/08/31 08:13:05;;;;;;;2.03;1.70;;;;;;;;;;5018567;28;20045;-69
2023/08/31 08:15:31;;;;;;;3.58;1.50;;;;;;;;;;5031556;28;20060;-70
2023/08/31 08:17:57;;;;;;;1.65;1.55;;;;;;;;;;5020923;28;20041;-70
2023/08/31 08:20:23;;;;;;;1.92;1.63;;;;;;;;;;5020475;28;20047;-70
2023/08/31 08:22:52;;;;;;;2.40;1.70;;;;;;;;;;5022391;28;20227;-69
2023/08/31 08:25:19;;;;;;;1.60;1.50;;;;;;;;;;5019888;28;20080;-72
2023/08/31 08:27:44;;;;;;;1.88;1.70;;;;;;;;;;5019739;28;20057;-72
2023/08/31 08:30:10;;;;;;;1.88;1.77;;;;;;;;;;5017280;28;20052;-71
2023/08/31 08:32:35;;;;;;;1.60;1.50;;;;;;;;;;5024421;28;20128;-72
2023/08/31 08:35:01;;;;;;;1.98;1.60;;;;;;;;;;5030282;28;20048;-71
2023/08/31 08:37:26;;;;;;;2.15;1.38;;;;;;;;;;5019001;28;20049;-72
2023/08/31 08:39:52;;;;;;;3.03;1.25;;;;;;;;;;5023656;28;20397;-72
2023/08/31 08:42:19;;;;;;;1.38;1.20;;;;;;;;;;5020547;28;20050;-72
2023/08/31 08:44:44;;;;;;;1.95;1.15;;;;;;;;;;5032129;28;20060;-71
2023/08/31 08:47:12;;;;;;;2.63;1.50;;;;;;;;;;5018848;28;20168;-71
2023/08/31 08:49:38;;;;;;;1.95;1.20;;;;;;;;;;5014359;28;20127;-72
2023/08/31 08:52:04;;;;;;;2.38;1.27;;;;;;;;;;5019442;28;20041;-69
2023/08/31 08:54:29;;;;;;;3.33;1.50;;;;;;;;;;5018702;28;20076;-71
2023/08/31 08:56:56;;;;;;;1.42;1.33;;;;;;;;;;5023202;28;20068;-72
2023/08/31 08:59:22;;;;;;;3.03;1.42;;;;;;;;;;5025982;28;20049;-72
2023/08/31 09:01:48;;;;;;;1.58;1.20;;;;;;;;;;5031963;28;20103;-72
2023/08/31 09:04:14;;;;;;;1.50;1.40;;;;;;;;;;5020918;28;20111;-72
2023/08/31 09:06:40;;;;;;;2.53;1.10;;;;;;;;;;5022736;28;20055;-72
2023/08/31 09:09:08;;;;;;;1.25;1.10;;;;;;;;;;5030005;28;20048;-71
2023/08/31 09:11:35;;;;;;;1.40;1.27;;;;;;;;;;5027542;28;20044;-72
2023/08/31 09:14:13;;;;;;;1.35;1.20;;;;;;;;;;5017424;28;20771;-72
2023/08/31 09:16:39;;;;;;;2.55;1.40;;;;;;;;;;5017331;28;20160;-72
2023/08/31 09:19:21;;;;;;;1.90;1.00;;;;;;;;;;5031903;28;20048;-72
2023/08/31 09:21:48;;;;;;;1.33;1.20;;;;;;;;;;5016468;28;20649;-72
2023/08/31 09:24:13;;;;;;;2.50;1.30;;;;;;;;;;5019479;28;20136;-72
2023/08/31 09:26:43;;;;;;;2.10;1.15;;;;;;;;;;5019148;28;20128;-73
2023/08/31 09:29:08;;;;;;;1.73;1.00;;;;;;;;;;5029474;28;20042;-73
2023/08/31 09:31:34;;;;;;;1.33;0.77;;;;;;;;;;5015442;28;20095;-70
2023/08/31 09:34:00;;;;;;;1.80;1.10;;;;;;;;;;5016730;28;20509;-71
2023/08/31 09:36:28;;;;;;;1.35;1.13;;;;;;;;;;5014621;28;20045;-71
2023/08/31 09:38:57;;;;;;;1.20;1.10;;;;;;;;;;5012889;28;20502;-72
2023/08/31 09:41:23;;;;;;;1.55;1.23;;;;;;;;;;5016219;28;20068;-71
2023/08/31 09:43:49;;;;;;;1.65;1.10;;;;;;;;;;5019617;28;20624;-71
2023/08/31 09:46:15;;;;;;;4.05;1.02;;;;;;;;;;5017394;28;20056;-72
2023/08/31 09:48:42;;;;;;;1.50;1.15;;;;;;;;;;5024040;28;20052;-72
2023/08/31 09:51:10;;;;;;;1.27;1.10;;;;;;;;;;5015738;28;20049;-72
2023/08/31 09:53:36;;;;;;;1.25;1.10;;;;;;;;;;5015891;28;20569;-72
2023/08/31 09:56:12;;;;;;;3.22;1.30;;;;;;;;;;5030114;28;20061;-72
2023/08/31 09:58:38;;;;;;;2.42;1.25;;;;;;;;;;5023926;28;20148;-71
2023/08/31 10:01:05;;;;;;;1.13;1.02;;;;;;;;;;5016515;28;20140;-71
2023/08/31 10:03:31;;;;;;;1.48;1.02;;;;;;;;;;5016444;28;20050;-71
2023/08/31 10:05:58;;;;;;;2.17;1.17;;;;;;;;;;5020177;28;20399;-72
2023/08/31 10:08:26;;;;;;;3.00;1.20;;;;;;;;;;5026361;28;20049;-72
2023/08/31 10:10:52;;;;;;;1.50;1.23;;;;;;;;;;5019077;28;20610;-71
2023/08/31 10:13:21;;;;;;;1.35;1.20;;;;;;;;;;5013185;28;20087;-71
2023/08/31 10:15:49;;;;;;;1.08;0.93;;;;;;;;;;5018676;28;20536;-71
2023/08/31 10:18:15;;;;;;;1.23;1.13;;;;;;;;;;5018279;28;20045;-71
2023/08/31 10:20:42;;;;;;;1.30;1.00;;;;;;;;;;5027085;28;20049;-71
2023/08/31 10:23:08;;;;;;;4.32;1.10;;;;;;;;;;5022905;28;20050;-72
2023/08/31 10:25:45;;;;;;;2.05;1.00;;;;;;;;;;5035546;28;20059;-72
2023/08/31 10:28:25;;;;;;;1.23;1.13;;;;;;;;;;5023579;28;20049;-73
2023/08/31 10:31:08;;;;;;;1.75;1.13;;;;;;;;;;5026494;28;20404;-73
2023/08/31 10:33:41;;;;;;;1.95;1.20;;;;;;;;;;5021479;28;20052;-72
2023/08/31 10:36:37;;;;;;;1.25;0.93;;;;;;;;;;5016702;28;20045;-68
2023/08/31 10:39:13;;;;;;;1.95;1.20;;;;;;;;;;5020789;28;20084;-72
2023/08/31 10:41:39;;;;;;;1.23;1.10;;;;;;;;;;5030739;28;20056;-72
2023/08/31 10:44:31;;;;;;;1.83;1.35;;;;;;;;;;5032288;28;20140;-72
2023/08/31 10:47:00;;;;;;;1.00;0.93;;;;;;;;;;5019565;28;20059;-71
2023/08/31 10:49:25;;;;;;;2.55;1.15;;;;;;;;;;5017827;28;20045;-71
2023/08/31 10:52:15;;;;;;;1.10;1.00;;;;;;;;;;5029441;28;20091;-71
2023/08/31 10:54:41;;;;;;;1.95;1.20;;;;;;;;;;5018576;28;20041;-70
2023/08/31 10:57:06;;;;;;;1.20;1.10;;;;;;;;;;5018307;28;20041;-70
2023/08/31 10:59:46;;;;;;;1.67;0.98;;;;;;;;;;5021600;28;20045;-72
2023/08/31 11:02:33;;;;;;;1.35;1.10;;;;;;;;;;5024859;28;20156;-74
2023/08/31 11:05:03;;;;;;;1.30;1.20;;;;;;;;;;5022578;28;20168;-73
2023/08/31 11:07:29;;;;;;;1.23;0.90;;;;;;;;;;5021433;28;20044;-75
2023/08/31 11:10:17;;;;;;;1.30;1.20;;;;;;;;;;5016329;28;20383;-74
2023/08/31 11:12:48;;;;;;;0.88;0.88;;;;;;;;;;5016347;28;20118;-74
2023/08/31 11:15:15;;;;;;;1.33;1.15;;;;;;;;;;5026521;28;20041;-74
2023/08/31 11:17:42;;;;;;;2.00;1.45;;;;;;;;;;5027686;28;20516;-73
2023/08/31 11:20:18;;;;;;;1.58;1.10;;;;;;;;;;5017411;28;20049;-74
2023/08/31 11:22:47;;;;;;;2.33;1.50;;;;;;;;;;5019460;28;21164;-74
2023/08/31 11:25:13;;;;;;;1.20;1.10;;;;;;;;;;5031627;28;20037;-73
2023/08/31 11:27:39;;;;;;;1.63;1.40;;;;;;;;;;5025993;28;20059;-73
2023/08/31 11:30:15;;;;;;;1.23;1.10;;;;;;;;;;5030934;28;20053;-74
2023/08/31 11:32:51;;;;;;;1.48;1.30;;;;;;;;;;5023105;28;20890;-74
2023/08/31 11:35:18;;;;;;;1.88;1.20;;;;;;;;;;5021305;28;20091;-74
2023/08/31 11:37:45;;;;;;;1.77;1.02;;;;;;;;;;5019785;28;20144;-73
2023/08/31 11:40:11;;;;;;;1.02;0.82;;;;;;;;;;5024629;28;20655;-73
2023/08/31 11:42:37;;;;;;;1.25;1.10;;;;;;;;;;5035838;28;20044;-72
2023/08/31 11:45:05;;;;;;;1.60;0.98;;;;;;;;;;5020998;28;20651;-72
2023/08/31 11:47:31;;;;;;;1.05;0.95;;;;;;;;;;5020861;28;20060;-73
2023/08/31 11:49:58;;;;;;;1.15;1.05;;;;;;;;;;5018574;28;20048;-73
2023/08/31 11:52:24;;;;;;;1.20;1.10;;;;;;;;;;5024345;28;20480;-72
2023/08/31 11:54:53;;;;;;;70.68;53.72;;;;;;;;;;5022105;28;20593;-71
2023/08/31 11:57:24;;;;;;;25.90;21.85;;;;;;;;;;5011603;28;20052;-72
2023/08/31 11:59:50;;;;;;;2.40;1.70;;;;;;;;;;5016672;28;21406;-72
2023/08/31 12:02:18;;;;;;;6.43;4.95;;;;;;;;;;5030227;28;20053;-73
2023/08/31 12:04:45;;;;;;;2.15;1.92;;;;;;;;;;5022647;28;20059;-72
2023/08/31 12:07:11;;;;;;;4.90;4.40;;;;;;;;;;5025057;28;20044;-73
2023/08/31 12:09:38;;;;;;;7.13;4.97;;;;;;;;;;5025469;28;20597;-74
2023/08/31 12:12:07;;;;;;;12.32;11.02;;;;;;;;;;5021123;28;20052;-74
2023/08/31 12:14:33;;;;;;;6.15;4.65;;;;;;;;;;5021257;28;20140;-74
2023/08/31 12:17:03;;;;;;;3.80;2.58;;;;;;;;;;5020974;28;20128;-73
2023/08/31 12:19:32;;;;;;;3.65;2.70;;;;;;;;;;5017216;28;21005;-74
2023/08/31 12:21:58;;;;;;;5.15;2.28;;;;;;;;;;5029926;28;20053;-73
2023/08/31 12:24:24;;;;;;;3.70;1.65;;;;;;;;;;5029836;28;20422;-73
2023/08/31 12:26:50;;;;;;;3.05;1.80;;;;;;;;;;5022926;28;20494;-72
2023/08/31 12:29:16;;;;;;;4.60;1.90;;;;;;;;;;5020320;28;20127;-72
2023/08/31 12:31:43;;;;;;;2.25;1.70;;;;;;;;;;5019455;28;20211;-73
2023/08/31 12:34:08;;;;;;;5.25;1.58;;;;;;;;;;5022682;28;20049;-72
2023/08/31 12:36:36;;;;;;;2.10;1.65;;;;;;;;;;5018840;28;20045;-72
2023/08/31 12:39:05;;;;;;;7.28;1.80;;;;;;;;;;5030858;28;20052;-72
2023/08/31 12:41:31;;;;;;;4.38;1.77;;;;;;;;;;5021259;28;20056;-72
2023/08/31 12:43:57;;;;;;;4.38;1.40;;;;;;;;;;5027716;28;20049;-73
2023/08/31 12:46:23;;;;;;;4.10;2.10;;;;;;;;;;5027532;28;20041;-74
2023/08/31 12:48:50;;;;;;;2.67;1.75;;;;;;;;;;5025076;28;20136;-74
2023/08/31 12:51:19;;;;;;;3.80;1.70;;;;;;;;;;5020872;28;20046;-73
2023/08/31 12:53:44;;;;;;;5.47;1.80;;;;;;;;;;5019192;28;20056;-73
2023/08/31 12:56:10;;;;;;;2.53;1.65;;;;;;;;;;5020735;28;20041;-73
2023/08/31 12:58:36;;;;;;;5.18;2.35;;;;;;;;;;5030383;28;20421;-74
2023/08/31 13:01:02;;;;;;;3.30;2.08;;;;;;;;;;5019845;28;20498;-73
2023/08/31 13:03:27;;;;;;;35.28;9.13;;;;;;;;;;5022531;28;20052;-73
2023/08/31 13:05:53;;;;;;;14.50;4.70;;;;;;;;;;5020852;28;20045;-73
2023/08/31 13:08:19;;;;;;;12.23;4.00;;;;;;;;;;5019910;28;20053;-73
2023/08/31 13:10:51;;;;;;;13.43;4.97;;;;;;;;;;5019979;28;20072;-73
2023/08/31 13:13:16;;;;;;;21.70;10.13;;;;;;;;;;5034033;28;20045;-74
2023/08/31 13:15:42;;;;;;;10.73;5.90;;;;;;;;;;5018247;28;20512;-73
2023/08/31 13:18:07;;;;;;;4.82;3.00;;;;;;;;;;5019728;28;20041;-73
2023/08/31 13:20:34;;;;;;;2.30;1.85;;;;;;;;;;5018687;28;20041;-72
2023/08/31 13:22:59;;;;;;;5.75;2.75;;;;;;;;;;5018997;28;20041;-74
2023/08/31 13:25:24;;;;;;;5.25;2.30;;;;;;;;;;5017881;28;20725;-74
2023/08/31 13:27:50;;;;;;;3.38;1.60;;;;;;;;;;5031520;28;20132;-73
2023/08/31 13:30:15;;;;;;;2.60;1.60;;;;;;;;;;5028828;28;20132;-72
2023/08/31 13:32:41;;;;;;;8.32;2.97;;;;;;;;;;5017365;28;20985;-73
2023/08/31 13:35:07;;;;;;;3.95;1.75;;;;;;;;;;5017090;28;21000;-72
2023/08/31 13:37:33;;;;;;;3.28;1.65;;;;;;;;;;5016475;28;20049;-71
2023/08/31 13:40:00;;;;;;;1.40;1.30;;;;;;;;;;5018607;28;20941;-72
2023/08/31 13:42:25;;;;;;;3.17;1.50;;;;;;;;;;5021527;28;20129;-75
2023/08/31 13:44:51;;;;;;;5.15;2.13;;;;;;;;;;5031510;28;21065;-73
2023/08/31 13:47:16;;;;;;;3.70;1.95;;;;;;;;;;5020224;28;20153;-72
2023/08/31 13:49:42;;;;;;;4.03;1.60;;;;;;;;;;5018943;28;20049;-73
2023/08/31 13:52:09;;;;;;;2.13;1.20;;;;;;;;;;5028214;28;20064;-71
2023/08/31 13:54:34;;;;;;;2.42;1.40;;;;;;;;;;5023568;28;20045;-71
2023/08/31 13:57:00;;;;;;;3.22;1.50;;;;;;;;;;5025110;28;20045;-72
2023/08/31 13:59:27;;;;;;;3.35;1.45;;;;;;;;;;5021396;28;20529;-71
2023/08/31 14:01:53;;;;;;;2.88;1.70;;;;;;;;;;5021191;28;20092;-71
2023/08/31 14:04:19;;;;;;;1.13;1.00;;;;;;;;;;5021331;28;20038;-71
2023/08/31 14:06:45;;;;;;;3.28;1.35;;;;;;;;;;5021099;28;20054;-71
2023/08/31 14:09:10;;;;;;;4.22;1.58;;;;;;;;;;5022172;28;20115;-72
2023/08/31 14:11:36;;;;;;;2.22;1.40;;;;;;;;;;5020455;28;20045;-72
2023/08/31 14:14:05;;;;;;;2.25;1.27;;;;;;;;;;5024964;28;21056;-72
2023/08/31 14:16:32;;;;;;;2.75;1.30;;;;;;;;;;5021476;28;20045;-72
2023/08/31 14:18:57;;;;;;;2.30;1.67;;;;;;;;;;5024923;28;20144;-72
2023/08/31 14:21:23;;;;;;;3.33;1.40;;;;;;;;;;5022453;28;20156;-72
2023/08/31 14:23:48;;;;;;;3.72;1.70;;;;;;;;;;5039718;28;20056;-71
2023/08/31 14:26:14;;;;;;;1.88;1.42;;;;;;;;;;5022114;28;20476;-71
2023/08/31 14:28:39;;;;;;;2.97;1.48;;;;;;;;;;5021892;28;20820;-71
2023/08/31 14:31:05;;;;;;;4.13;1.30;;;;;;;;;;5023848;28;20426;-71
2023/08/31 14:33:31;;;;;;;2.08;1.70;;;;;;;;;;5022413;28;20030;-72
2023/08/31 14:35:56;;;;;;;5.97;1.48;;;;;;;;;;5022341;28;20497;-72
2023/08/31 14:38:23;;;;;;;4.03;1.48;;;;;;;;;;5021935;28;20049;-72
2023/08/31 14:40:49;;;;;;;1.65;1.42;;;;;;;;;;5023307;28;20041;-71
2023/08/31 14:43:14;;;;;;;1.33;1.17;;;;;;;;;;5020960;28;20052;-72